sensor_id;sensor_type;location;lat;lon;timestamp;P1;durP1;ratioP1;P2;durP2;ratioP2
6842;SDS011;3460;52.028;8.916;2024-01-30T00:02:01;15.23;;;9.73;;
6842;SDS011;3460;52.028;8.916;2024-01-30T00:04:28;14.90;;;9.90;;
6842;SDS011;3460;52.028;8.916;2024-01-30T00:06:55;14.07;;;9.90;;
6842;SDS011;3460;52.028;8.916;2024-01-30T00:09:23;14.70;;;10.03;;
6842;SDS011;3460;52.028;8.916;2024-01-30T00:11:50;13.87;;;9.30;;
6842;SDS011;3460;52.028;8.916;2024-01-30T00:14:17;13.63;;;8.93;;
6842;SDS011;3460;52.028;8.916;2024-01-30T00:16:44;16.33;;;9.63;;
6842;SDS011;3460;52.028;8.916;2024-01-30T00:19:11;17.30;;;9.77;;
6842;SDS011;3460;52.028;8.916;2024-01-30T00:21:37;13.63;;;9.63;;
6842;SDS011;3460;52.028;8.916;2024-01-30T00:24:04;15.93;;;9.80;;
6842;SDS011;3460;52.028;8.916;2024-01-30T00:26:32;16.53;;;10.30;;
6842;SDS011;3460;52.028;8.916;2024-01-30T00:28:59;13.83;;;9.53;;
6842;SDS011;3460;52.028;8.916;2024-01-30T00:31:26;14.90;;;9.37;;
6842;SDS011;3460;52.028;8.916;2024-01-30T00:33:53;15.03;;;9.67;;
6842;SDS011;3460;52.028;8.916;2024-01-30T00:36:20;14.37;;;9.07;;
6842;SDS011;3460;52.028;8.916;2024-01-30T00:38:46;15.37;;;9.43;;
6842;SDS011;3460;52.028;8.916;2024-01-30T00:41:13;12.00;;;9.17;;
6842;SDS011;3460;52.028;8.916;2024-01-30T00:43:42;16.93;;;9.87;;
6842;SDS011;3460;52.028;8.916;2024-01-30T00:46:08;16.03;;;9.83;;
6842;SDS011;3460;52.028;8.916;2024-01-30T00:48:35;15.57;;;9.50;;
6842;SDS011;3460;52.028;8.916;2024-01-30T00:51:02;15.90;;;9.90;;
6842;SDS011;3460;52.028;8.916;2024-01-30T00:53:29;14.13;;;10.30;;
6842;SDS011;3460;52.028;8.916;2024-01-30T00:55:56;16.70;;;9.60;;
6842;SDS011;3460;52.028;8.916;2024-01-30T00:58:22;15.70;;;10.33;;
6842;SDS011;3460;52.028;8.916;2024-01-30T01:00:51;16.17;;;10.00;;
6842;SDS011;3460;52.028;8.916;2024-01-30T01:03:18;13.83;;;9.90;;
6842;SDS011;3460;52.028;8.916;2024-01-30T01:05:44;18.67;;;10.67;;
6842;SDS011;3460;52.028;8.916;2024-01-30T01:08:11;17.67;;;9.70;;
6842;SDS011;3460;52.028;8.916;2024-01-30T01:10:40;17.53;;;10.27;;
6842;SDS011;3460;52.028;8.916;2024-01-30T01:13:07;18.47;;;10.23;;
6842;SDS011;3460;52.028;8.916;2024-01-30T01:15:33;15.93;;;10.07;;
6842;SDS011;3460;52.028;8.916;2024-01-30T01:18:02;18.27;;;10.70;;
6842;SDS011;3460;52.028;8.916;2024-01-30T01:20:29;17.57;;;11.30;;
6842;SDS011;3460;52.028;8.916;2024-01-30T01:22:56;16.20;;;9.93;;
6842;SDS011;3460;52.028;8.916;2024-01-30T01:25:23;17.17;;;10.57;;
6842;SDS011;3460;52.028;8.916;2024-01-30T01:27:49;15.50;;;10.17;;
6842;SDS011;3460;52.028;8.916;2024-01-30T01:30:17;18.93;;;11.30;;
6842;SDS011;3460;52.028;8.916;2024-01-30T01:32:46;16.47;;;10.63;;
6842;SDS011;3460;52.028;8.916;2024-01-30T01:35:21;15.67;;;10.77;;
6842;SDS011;3460;52.028;8.916;2024-01-30T01:37:49;19.80;;;11.00;;
6842;SDS011;3460;52.028;8.916;2024-01-30T01:40:19;17.90;;;10.40;;
6842;SDS011;3460;52.028;8.916;2024-01-30T01:42:47;14.37;;;11.30;;
6842;SDS011;3460;52.028;8.916;2024-01-30T01:45:15;14.77;;;10.03;;
6842;SDS011;3460;52.028;8.916;2024-01-30T01:47:41;17.37;;;10.17;;
6842;SDS011;3460;52.028;8.916;2024-01-30T01:50:11;18.17;;;10.80;;
6842;SDS011;3460;52.028;8.916;2024-01-30T01:52:39;14.47;;;10.23;;
6842;SDS011;3460;52.028;8.916;2024-01-30T01:55:07;18.10;;;10.67;;
6842;SDS011;3460;52.028;8.916;2024-01-30T01:57:34;16.17;;;10.90;;
6842;SDS011;3460;52.028;8.916;2024-01-30T02:00:01;16.03;;;10.47;;
6842;SDS011;3460;52.028;8.916;2024-01-30T02:02:30;16.70;;;10.23;;
6842;SDS011;3460;52.028;8.916;2024-01-30T02:05:01;13.97;;;9.93;;
6842;SDS011;3460;52.028;8.916;2024-01-30T02:07:28;14.33;;;10.30;;
6842;SDS011;3460;52.028;8.916;2024-01-30T02:09:56;16.70;;;11.33;;
6842;SDS011;3460;52.028;8.916;2024-01-30T02:12:23;17.40;;;10.60;;
6842;SDS011;3460;52.028;8.916;2024-01-30T02:14:49;16.07;;;11.00;;
6842;SDS011;3460;52.028;8.916;2024-01-30T02:17:16;15.57;;;10.13;;
6842;SDS011;3460;52.028;8.916;2024-01-30T02:19:43;16.90;;;10.70;;
6842;SDS011;3460;52.028;8.916;2024-01-30T02:22:11;14.60;;;9.77;;
6842;SDS011;3460;52.028;8.916;2024-01-30T02:24:39;19.53;;;11.37;;
6842;SDS011;3460;52.028;8.916;2024-01-30T02:27:06;16.73;;;10.77;;
6842;SDS011;3460;52.028;8.916;2024-01-30T02:29:32;15.43;;;10.73;;
6842;SDS011;3460;52.028;8.916;2024-01-30T02:31:59;18.90;;;11.20;;
6842;SDS011;3460;52.028;8.916;2024-01-30T02:34:26;16.07;;;9.90;;
6842;SDS011;3460;52.028;8.916;2024-01-30T02:36:53;17.33;;;11.43;;
6842;SDS011;3460;52.028;8.916;2024-01-30T02:39:21;17.03;;;10.13;;
6842;SDS011;3460;52.028;8.916;2024-01-30T02:41:48;15.07;;;10.60;;
6842;SDS011;3460;52.028;8.916;2024-01-30T02:44:14;16.83;;;10.20;;
6842;SDS011;3460;52.028;8.916;2024-01-30T02:46:41;14.70;;;10.27;;
6842;SDS011;3460;52.028;8.916;2024-01-30T02:49:08;19.90;;;10.90;;
6842;SDS011;3460;52.028;8.916;2024-01-30T02:51:35;16.70;;;10.57;;
6842;SDS011;3460;52.028;8.916;2024-01-30T02:54:02;19.10;;;11.33;;
6842;SDS011;3460;52.028;8.916;2024-01-30T02:56:30;18.67;;;10.50;;
6842;SDS011;3460;52.028;8.916;2024-01-30T02:58:57;17.80;;;11.17;;
6842;SDS011;3460;52.028;8.916;2024-01-30T03:01:23;15.10;;;10.33;;
6842;SDS011;3460;52.028;8.916;2024-01-30T03:03:50;15.80;;;10.37;;
6842;SDS011;3460;52.028;8.916;2024-01-30T03:06:17;14.87;;;10.90;;
6842;SDS011;3460;52.028;8.916;2024-01-30T03:08:45;16.77;;;10.90;;
6842;SDS011;3460;52.028;8.916;2024-01-30T03:11:12;15.20;;;10.23;;
6842;SDS011;3460;52.028;8.916;2024-01-30T03:13:40;19.10;;;10.43;;
6842;SDS011;3460;52.028;8.916;2024-01-30T03:16:08;19.67;;;10.33;;
6842;SDS011;3460;52.028;8.916;2024-01-30T03:18:34;16.10;;;10.80;;
6842;SDS011;3460;52.028;8.916;2024-01-30T03:21:01;16.73;;;10.43;;
6842;SDS011;3460;52.028;8.916;2024-01-30T03:23:28;18.07;;;10.13;;
6842;SDS011;3460;52.028;8.916;2024-01-30T03:25:57;17.80;;;10.97;;
6842;SDS011;3460;52.028;8.916;2024-01-30T03:28:24;17.00;;;10.70;;
6842;SDS011;3460;52.028;8.916;2024-01-30T03:30:52;15.77;;;10.07;;
6842;SDS011;3460;52.028;8.916;2024-01-30T03:33:18;16.67;;;10.23;;
6842;SDS011;3460;52.028;8.916;2024-01-30T03:35:45;16.50;;;10.93;;
6842;SDS011;3460;52.028;8.916;2024-01-30T03:38:12;20.67;;;11.87;;
6842;SDS011;3460;52.028;8.916;2024-01-30T03:40:39;16.00;;;10.97;;
6842;SDS011;3460;52.028;8.916;2024-01-30T03:43:05;16.10;;;10.47;;
6842;SDS011;3460;52.028;8.916;2024-01-30T03:45:32;16.50;;;10.57;;
6842;SDS011;3460;52.028;8.916;2024-01-30T03:48:00;19.27;;;10.33;;
6842;SDS011;3460;52.028;8.916;2024-01-30T03:50:27;18.83;;;11.23;;
6842;SDS011;3460;52.028;8.916;2024-01-30T03:52:54;18.53;;;10.97;;
6842;SDS011;3460;52.028;8.916;2024-01-30T03:55:20;15.10;;;10.63;;
6842;SDS011;3460;52.028;8.916;2024-01-30T03:57:47;15.37;;;10.93;;
6842;SDS011;3460;52.028;8.916;2024-01-30T04:00:14;16.70;;;10.77;;
6842;SDS011;3460;52.028;8.916;2024-01-30T04:02:41;18.50;;;10.77;;
6842;SDS011;3460;52.028;8.916;2024-01-30T04:05:09;15.83;;;10.23;;
6842;SDS011;3460;52.028;8.916;2024-01-30T04:07:36;17.20;;;10.37;;
6842;SDS011;3460;52.028;8.916;2024-01-30T04:10:03;16.00;;;10.50;;
6842;SDS011;3460;52.028;8.916;2024-01-30T04:12:31;16.03;;;10.07;;
6842;SDS011;3460;52.028;8.916;2024-01-30T04:14:58;14.83;;;10.57;;
6842;SDS011;3460;52.028;8.916;2024-01-30T04:17:25;17.53;;;10.50;;
6842;SDS011;3460;52.028;8.916;2024-01-30T04:19:53;14.70;;;10.10;;
6842;SDS011;3460;52.028;8.916;2024-01-30T04:22:21;16.07;;;10.13;;
6842;SDS011;3460;52.028;8.916;2024-01-30T04:24:48;16.93;;;10.57;;
6842;SDS011;3460;52.028;8.916;2024-01-30T04:27:14;15.47;;;10.13;;
6842;SDS011;3460;52.028;8.916;2024-01-30T04:29:41;16.77;;;10.37;;
6842;SDS011;3460;52.028;8.916;2024-01-30T04:32:08;16.33;;;10.27;;
6842;SDS011;3460;52.028;8.916;2024-01-30T04:34:35;18.57;;;10.47;;
6842;SDS011;3460;52.028;8.916;2024-01-30T04:37:03;16.40;;;11.17;;
6842;SDS011;3460;52.028;8.916;2024-01-30T04:39:32;17.27;;;11.13;;
6842;SDS011;3460;52.028;8.916;2024-01-30T04:41:59;18.83;;;10.67;;
6842;SDS011;3460;52.028;8.916;2024-01-30T04:44:26;18.07;;;10.57;;
6842;SDS011;3460;52.028;8.916;2024-01-30T04:46:52;18.50;;;11.60;;
6842;SDS011;3460;52.028;8.916;2024-01-30T04:49:19;15.63;;;10.17;;
6842;SDS011;3460;52.028;8.916;2024-01-30T04:51:46;18.10;;;10.37;;
6842;SDS011;3460;52.028;8.916;2024-01-30T04:54:12;17.03;;;11.47;;
6842;SDS011;3460;52.028;8.916;2024-01-30T04:56:41;15.87;;;10.67;;
6842;SDS011;3460;52.028;8.916;2024-01-30T04:59:07;18.27;;;10.30;;
6842;SDS011;3460;52.028;8.916;2024-01-30T05:01:34;17.47;;;10.03;;
6842;SDS011;3460;52.028;8.916;2024-01-30T05:04:01;14.70;;;10.33;;
6842;SDS011;3460;52.028;8.916;2024-01-30T05:06:28;19.03;;;10.97;;
6842;SDS011;3460;52.028;8.916;2024-01-30T05:08:55;19.50;;;11.50;;
6842;SDS011;3460;52.028;8.916;2024-01-30T05:11:22;16.17;;;10.60;;
6842;SDS011;3460;52.028;8.916;2024-01-30T05:13:50;18.70;;;10.50;;
6842;SDS011;3460;52.028;8.916;2024-01-30T05:16:17;19.43;;;12.07;;
6842;SDS011;3460;52.028;8.916;2024-01-30T05:18:44;17.73;;;10.07;;
6842;SDS011;3460;52.028;8.916;2024-01-30T05:21:10;17.20;;;10.73;;
6842;SDS011;3460;52.028;8.916;2024-01-30T05:23:37;17.03;;;10.63;;
6842;SDS011;3460;52.028;8.916;2024-01-30T05:26:05;16.90;;;10.40;;
6842;SDS011;3460;52.028;8.916;2024-01-30T05:28:32;13.93;;;9.73;;
6842;SDS011;3460;52.028;8.916;2024-01-30T05:31:00;15.27;;;10.17;;
6842;SDS011;3460;52.028;8.916;2024-01-30T05:33:27;15.87;;;10.57;;
6842;SDS011;3460;52.028;8.916;2024-01-30T05:35:53;17.37;;;11.13;;
6842;SDS011;3460;52.028;8.916;2024-01-30T05:38:20;16.60;;;10.23;;
6842;SDS011;3460;52.028;8.916;2024-01-30T05:40:47;19.10;;;10.87;;
6842;SDS011;3460;52.028;8.916;2024-01-30T05:43:14;17.13;;;10.43;;
6842;SDS011;3460;52.028;8.916;2024-01-30T05:45:41;17.87;;;11.10;;
6842;SDS011;3460;52.028;8.916;2024-01-30T05:48:09;16.23;;;10.20;;
6842;SDS011;3460;52.028;8.916;2024-01-30T05:50:36;17.77;;;10.40;;
6842;SDS011;3460;52.028;8.916;2024-01-30T05:53:02;20.70;;;10.13;;
6842;SDS011;3460;52.028;8.916;2024-01-30T05:55:29;18.07;;;11.33;;
6842;SDS011;3460;52.028;8.916;2024-01-30T05:57:56;18.07;;;11.13;;
6842;SDS011;3460;52.028;8.916;2024-01-30T06:00:23;17.23;;;11.27;;
6842;SDS011;3460;52.028;8.916;2024-01-30T06:02:50;15.07;;;10.40;;
6842;SDS011;3460;52.028;8.916;2024-01-30T06:05:18;17.10;;;11.57;;
6842;SDS011;3460;52.028;8.916;2024-01-30T06:07:45;14.00;;;10.43;;
6842;SDS011;3460;52.028;8.916;2024-01-30T06:10:11;15.40;;;10.47;;
6842;SDS011;3460;52.028;8.916;2024-01-30T06:12:39;18.73;;;10.93;;
6842;SDS011;3460;52.028;8.916;2024-01-30T06:15:06;16.43;;;10.63;;
6842;SDS011;3460;52.028;8.916;2024-01-30T06:17:33;14.67;;;10.50;;
6842;SDS011;3460;52.028;8.916;2024-01-30T06:20:00;17.60;;;10.40;;
6842;SDS011;3460;52.028;8.916;2024-01-30T06:22:28;16.13;;;10.13;;
6842;SDS011;3460;52.028;8.916;2024-01-30T06:24:55;15.57;;;10.47;;
6842;SDS011;3460;52.028;8.916;2024-01-30T06:27:22;18.57;;;10.83;;
6842;SDS011;3460;52.028;8.916;2024-01-30T06:29:48;15.93;;;10.40;;
6842;SDS011;3460;52.028;8.916;2024-01-30T06:32:15;14.27;;;10.37;;
6842;SDS011;3460;52.028;8.916;2024-01-30T06:34:42;16.17;;;10.43;;
6842;SDS011;3460;52.028;8.916;2024-01-30T06:37:09;18.67;;;10.30;;
6842;SDS011;3460;52.028;8.916;2024-01-30T06:39:37;16.37;;;10.63;;
6842;SDS011;3460;52.028;8.916;2024-01-30T06:42:04;14.33;;;10.23;;
6842;SDS011;3460;52.028;8.916;2024-01-30T06:44:31;16.57;;;10.43;;
6842;SDS011;3460;52.028;8.916;2024-01-30T06:46:58;17.83;;;10.57;;
6842;SDS011;3460;52.028;8.916;2024-01-30T06:49:24;20.43;;;12.77;;
6842;SDS011;3460;52.028;8.916;2024-01-30T06:51:51;16.73;;;11.73;;
6842;SDS011;3460;52.028;8.916;2024-01-30T06:54:18;16.40;;;11.27;;
6842;SDS011;3460;52.028;8.916;2024-01-30T06:56:46;15.70;;;10.97;;
6842;SDS011;3460;52.028;8.916;2024-01-30T06:59:13;17.37;;;10.90;;
6842;SDS011;3460;52.028;8.916;2024-01-30T07:01:39;18.07;;;10.50;;
6842;SDS011;3460;52.028;8.916;2024-01-30T07:04:06;15.23;;;10.20;;
6842;SDS011;3460;52.028;8.916;2024-01-30T07:06:33;17.13;;;10.73;;
6842;SDS011;3460;52.028;8.916;2024-01-30T07:09:00;17.30;;;10.30;;
6842;SDS011;3460;52.028;8.916;2024-01-30T07:11:26;16.33;;;10.07;;
6842;SDS011;3460;52.028;8.916;2024-01-30T07:13:56;16.40;;;10.50;;
6842;SDS011;3460;52.028;8.916;2024-01-30T07:16:23;19.70;;;10.30;;
6842;SDS011;3460;52.028;8.916;2024-01-30T07:18:49;15.50;;;11.00;;
6842;SDS011;3460;52.028;8.916;2024-01-30T07:21:16;15.67;;;10.30;;
6842;SDS011;3460;52.028;8.916;2024-01-30T07:23:43;18.40;;;11.13;;
6842;SDS011;3460;52.028;8.916;2024-01-30T07:26:10;15.07;;;10.07;;
6842;SDS011;3460;52.028;8.916;2024-01-30T07:28:37;16.80;;;10.77;;
6842;SDS011;3460;52.028;8.916;2024-01-30T07:31:05;16.23;;;10.90;;
6842;SDS011;3460;52.028;8.916;2024-01-30T07:33:32;16.70;;;10.03;;
6842;SDS011;3460;52.028;8.916;2024-01-30T07:35:58;17.60;;;10.57;;
6842;SDS011;3460;52.028;8.916;2024-01-30T07:38:25;18.37;;;11.30;;
6842;SDS011;3460;52.028;8.916;2024-01-30T07:40:52;17.63;;;11.30;;
6842;SDS011;3460;52.028;8.916;2024-01-30T07:43:19;15.17;;;10.10;;
6842;SDS011;3460;52.028;8.916;2024-01-30T07:45:46;18.23;;;10.37;;
6842;SDS011;3460;52.028;8.916;2024-01-30T07:48:14;17.37;;;9.97;;
6842;SDS011;3460;52.028;8.916;2024-01-30T07:50:41;16.80;;;10.73;;
6842;SDS011;3460;52.028;8.916;2024-01-30T07:53:08;18.03;;;10.97;;
6842;SDS011;3460;52.028;8.916;2024-01-30T07:55:34;18.50;;;11.10;;
6842;SDS011;3460;52.028;8.916;2024-01-30T08:01:26;15.73;;;10.20;;
6842;SDS011;3460;52.028;8.916;2024-01-30T08:03:55;17.73;;;10.53;;
6842;SDS011;3460;52.028;8.916;2024-01-30T08:06:21;25.13;;;9.67;;
6842;SDS011;3460;52.028;8.916;2024-01-30T08:08:48;15.37;;;10.03;;
6842;SDS011;3460;52.028;8.916;2024-01-30T08:11:18;17.83;;;10.57;;
6842;SDS011;3460;52.028;8.916;2024-01-30T08:13:50;14.77;;;10.17;;
6842;SDS011;3460;52.028;8.916;2024-01-30T08:16:17;19.93;;;11.80;;
6842;SDS011;3460;52.028;8.916;2024-01-30T08:18:44;14.57;;;10.53;;
6842;SDS011;3460;52.028;8.916;2024-01-30T08:21:12;16.60;;;10.27;;
6842;SDS011;3460;52.028;8.916;2024-01-30T08:23:39;13.43;;;9.50;;
6842;SDS011;3460;52.028;8.916;2024-01-30T08:26:06;17.00;;;10.30;;
6842;SDS011;3460;52.028;8.916;2024-01-30T08:28:33;20.60;;;11.00;;
6842;SDS011;3460;52.028;8.916;2024-01-30T08:30:59;17.23;;;9.93;;
6842;SDS011;3460;52.028;8.916;2024-01-30T08:33:26;15.87;;;10.57;;
6842;SDS011;3460;52.028;8.916;2024-01-30T08:35:53;15.60;;;9.90;;
6842;SDS011;3460;52.028;8.916;2024-01-30T08:38:21;16.17;;;10.53;;
6842;SDS011;3460;52.028;8.916;2024-01-30T08:40:49;15.57;;;10.30;;
6842;SDS011;3460;52.028;8.916;2024-01-30T08:43:16;15.67;;;9.83;;
6842;SDS011;3460;52.028;8.916;2024-01-30T08:45:42;17.00;;;9.57;;
6842;SDS011;3460;52.028;8.916;2024-01-30T08:48:09;19.30;;;9.83;;
6842;SDS011;3460;52.028;8.916;2024-01-30T08:50:36;18.73;;;10.47;;
6842;SDS011;3460;52.028;8.916;2024-01-30T08:53:04;14.77;;;9.30;;
6842;SDS011;3460;52.028;8.916;2024-01-30T08:55:32;14.67;;;9.50;;
6842;SDS011;3460;52.028;8.916;2024-01-30T08:57:58;16.23;;;10.60;;
6842;SDS011;3460;52.028;8.916;2024-01-30T09:00:25;17.97;;;10.33;;
6842;SDS011;3460;52.028;8.916;2024-01-30T09:02:52;14.93;;;10.03;;
6842;SDS011;3460;52.028;8.916;2024-01-30T09:05:19;17.33;;;10.43;;
6842;SDS011;3460;52.028;8.916;2024-01-30T09:07:45;16.47;;;9.47;;
6842;SDS011;3460;52.028;8.916;2024-01-30T09:10:12;18.57;;;10.23;;
6842;SDS011;3460;52.028;8.916;2024-01-30T09:12:40;14.77;;;9.47;;
6842;SDS011;3460;52.028;8.916;2024-01-30T09:15:08;16.87;;;10.80;;
6842;SDS011;3460;52.028;8.916;2024-01-30T09:17:35;16.50;;;9.93;;
6842;SDS011;3460;52.028;8.916;2024-01-30T09:20:02;13.47;;;9.63;;
6842;SDS011;3460;52.028;8.916;2024-01-30T09:22:29;15.33;;;9.30;;
6842;SDS011;3460;52.028;8.916;2024-01-30T09:24:56;17.23;;;10.20;;
6842;SDS011;3460;52.028;8.916;2024-01-30T09:27:23;14.60;;;10.57;;
6842;SDS011;3460;52.028;8.916;2024-01-30T09:29:51;15.00;;;10.00;;
6842;SDS011;3460;52.028;8.916;2024-01-30T09:32:18;11.83;;;9.07;;
6842;SDS011;3460;52.028;8.916;2024-01-30T09:34:45;14.80;;;9.40;;
6842;SDS011;3460;52.028;8.916;2024-01-30T09:37:12;17.47;;;10.30;;
6842;SDS011;3460;52.028;8.916;2024-01-30T09:39:40;16.10;;;10.27;;
6842;SDS011;3460;52.028;8.916;2024-01-30T09:42:09;17.03;;;10.60;;
6842;SDS011;3460;52.028;8.916;2024-01-30T09:44:44;18.03;;;10.67;;
6842;SDS011;3460;52.028;8.916;2024-01-30T09:47:14;13.57;;;8.97;;
6842;SDS011;3460;52.028;8.916;2024-01-30T09:49:42;15.00;;;9.90;;
6842;SDS011;3460;52.028;8.916;2024-01-30T09:52:10;15.57;;;10.53;;
6842;SDS011;3460;52.028;8.916;2024-01-30T09:54:37;17.93;;;9.87;;
6842;SDS011;3460;52.028;8.916;2024-01-30T09:57:04;13.93;;;10.00;;
6842;SDS011;3460;52.028;8.916;2024-01-30T09:59:32;15.40;;;10.33;;
6842;SDS011;3460;52.028;8.916;2024-01-30T10:01:59;18.03;;;9.63;;
6842;SDS011;3460;52.028;8.916;2024-01-30T10:04:27;14.93;;;10.17;;
6842;SDS011;3460;52.028;8.916;2024-01-30T10:06:54;18.03;;;10.23;;
6842;SDS011;3460;52.028;8.916;2024-01-30T10:09:21;17.50;;;10.20;;
6842;SDS011;3460;52.028;8.916;2024-01-30T10:11:48;15.83;;;9.63;;
6842;SDS011;3460;52.028;8.916;2024-01-30T10:14:17;15.83;;;9.70;;
6842;SDS011;3460;52.028;8.916;2024-01-30T10:16:45;17.63;;;9.47;;
6842;SDS011;3460;52.028;8.916;2024-01-30T10:19:13;13.13;;;8.83;;
6842;SDS011;3460;52.028;8.916;2024-01-30T10:21:41;15.27;;;9.17;;
6842;SDS011;3460;52.028;8.916;2024-01-30T10:24:08;13.73;;;9.27;;
6842;SDS011;3460;52.028;8.916;2024-01-30T10:26:37;14.53;;;9.23;;
6842;SDS011;3460;52.028;8.916;2024-01-30T10:29:04;13.60;;;8.73;;
6842;SDS011;3460;52.028;8.916;2024-01-30T10:31:31;11.60;;;8.60;;
6842;SDS011;3460;52.028;8.916;2024-01-30T10:33:58;14.80;;;9.53;;
6842;SDS011;3460;52.028;8.916;2024-01-30T10:36:26;14.73;;;9.63;;
6842;SDS011;3460;52.028;8.916;2024-01-30T10:38:57;15.30;;;9.10;;
6842;SDS011;3460;52.028;8.916;2024-01-30T10:41:26;15.73;;;9.33;;
6842;SDS011;3460;52.028;8.916;2024-01-30T10:43:57;15.83;;;9.27;;
6842;SDS011;3460;52.028;8.916;2024-01-30T10:46:29;15.67;;;9.80;;
6842;SDS011;3460;52.028;8.916;2024-01-30T10:48:59;14.13;;;9.20;;
6842;SDS011;3460;52.028;8.916;2024-01-30T10:51:26;16.83;;;10.03;;
6842;SDS011;3460;52.028;8.916;2024-01-30T10:53:56;16.87;;;9.83;;
6842;SDS011;3460;52.028;8.916;2024-01-30T10:56:23;16.20;;;10.00;;
6842;SDS011;3460;52.028;8.916;2024-01-30T10:58:50;14.37;;;9.33;;
6842;SDS011;3460;52.028;8.916;2024-01-30T11:01:18;15.27;;;9.20;;
6842;SDS011;3460;52.028;8.916;2024-01-30T11:03:47;14.70;;;9.50;;
6842;SDS011;3460;52.028;8.916;2024-01-30T11:06:15;16.87;;;9.90;;
6842;SDS011;3460;52.028;8.916;2024-01-30T11:08:43;12.10;;;10.03;;
6842;SDS011;3460;52.028;8.916;2024-01-30T11:11:11;12.93;;;9.63;;
6842;SDS011;3460;52.028;8.916;2024-01-30T11:13:38;15.23;;;10.20;;
6842;SDS011;3460;52.028;8.916;2024-01-30T11:16:06;14.00;;;9.60;;
6842;SDS011;3460;52.028;8.916;2024-01-30T11:18:33;13.77;;;9.13;;
6842;SDS011;3460;52.028;8.916;2024-01-30T11:21:04;15.53;;;10.03;;
6842;SDS011;3460;52.028;8.916;2024-01-30T11:23:32;13.80;;;9.00;;
6842;SDS011;3460;52.028;8.916;2024-01-30T11:26:00;15.77;;;9.50;;
6842;SDS011;3460;52.028;8.916;2024-01-30T11:28:32;15.33;;;9.83;;
6842;SDS011;3460;52.028;8.916;2024-01-30T11:31:03;14.33;;;9.73;;
6842;SDS011;3460;52.028;8.916;2024-01-30T11:33:30;17.23;;;10.17;;
6842;SDS011;3460;52.028;8.916;2024-01-30T11:35:58;18.87;;;9.90;;
6842;SDS011;3460;52.028;8.916;2024-01-30T11:38:26;13.10;;;8.87;;
6842;SDS011;3460;52.028;8.916;2024-01-30T11:40:53;12.27;;;9.60;;
6842;SDS011;3460;52.028;8.916;2024-01-30T11:43:20;17.60;;;11.63;;
6842;SDS011;3460;52.028;8.916;2024-01-30T11:45:49;13.73;;;9.87;;
6842;SDS011;3460;52.028;8.916;2024-01-30T11:48:16;13.33;;;9.77;;
6842;SDS011;3460;52.028;8.916;2024-01-30T11:50:43;12.07;;;8.77;;
6842;SDS011;3460;52.028;8.916;2024-01-30T11:53:10;12.27;;;9.63;;
6842;SDS011;3460;52.028;8.916;2024-01-30T11:55:37;14.40;;;9.40;;
6842;SDS011;3460;52.028;8.916;2024-01-30T11:58:04;14.43;;;9.03;;
6842;SDS011;3460;52.028;8.916;2024-01-30T12:00:31;14.50;;;9.67;;
6842;SDS011;3460;52.028;8.916;2024-01-30T12:02:59;14.83;;;9.53;;
6842;SDS011;3460;52.028;8.916;2024-01-30T12:05:27;14.60;;;9.40;;
6842;SDS011;3460;52.028;8.916;2024-01-30T12:07:54;14.00;;;9.40;;
6842;SDS011;3460;52.028;8.916;2024-01-30T12:10:23;15.13;;;8.77;;
6842;SDS011;3460;52.028;8.916;2024-01-30T12:12:51;14.23;;;9.93;;
6842;SDS011;3460;52.028;8.916;2024-01-30T12:15:21;15.97;;;9.50;;
6842;SDS011;3460;52.028;8.916;2024-01-30T12:17:48;13.17;;;8.67;;
6842;SDS011;3460;52.028;8.916;2024-01-30T12:20:17;11.80;;;9.40;;
6842;SDS011;3460;52.028;8.916;2024-01-30T12:22:46;12.23;;;9.03;;
6842;SDS011;3460;52.028;8.916;2024-01-30T12:25:14;12.83;;;8.77;;
6842;SDS011;3460;52.028;8.916;2024-01-30T12:27:42;13.90;;;8.63;;
6842;SDS011;3460;52.028;8.916;2024-01-30T12:30:10;14.30;;;8.93;;
6842;SDS011;3460;52.028;8.916;2024-01-30T12:32:39;13.57;;;8.00;;
6842;SDS011;3460;52.028;8.916;2024-01-30T12:35:07;12.47;;;8.23;;
6842;SDS011;3460;52.028;8.916;2024-01-30T12:37:36;11.77;;;7.70;;
6842;SDS011;3460;52.028;8.916;2024-01-30T12:40:03;12.00;;;8.03;;
6842;SDS011;3460;52.028;8.916;2024-01-30T12:42:31;11.63;;;8.50;;
6842;SDS011;3460;52.028;8.916;2024-01-30T12:44:58;12.83;;;8.50;;
6842;SDS011;3460;52.028;8.916;2024-01-30T12:47:25;12.40;;;8.50;;
6842;SDS011;3460;52.028;8.916;2024-01-30T12:49:51;11.60;;;7.97;;
6842;SDS011;3460;52.028;8.916;2024-01-30T12:52:19;10.93;;;7.00;;
6842;SDS011;3460;52.028;8.916;2024-01-30T12:54:48;11.50;;;6.87;;
6842;SDS011;3460;52.028;8.916;2024-01-30T12:57:15;10.33;;;6.80;;
6842;SDS011;3460;52.028;8.916;2024-01-30T12:59:42;10.43;;;5.33;;
6842;SDS011;3460;52.028;8.916;2024-01-30T13:02:10;9.73;;;5.30;;
6842;SDS011;3460;52.028;8.916;2024-01-30T13:04:36;8.30;;;4.93;;
6842;SDS011;3460;52.028;8.916;2024-01-30T13:07:03;10.20;;;4.67;;
6842;SDS011;3460;52.028;8.916;2024-01-30T13:09:30;7.90;;;4.23;;
6842;SDS011;3460;52.028;8.916;2024-01-30T13:11:58;8.97;;;4.53;;
6842;SDS011;3460;52.028;8.916;2024-01-30T13:14:26;9.37;;;4.93;;
6842;SDS011;3460;52.028;8.916;2024-01-30T13:16:52;11.23;;;5.23;;
6842;SDS011;3460;52.028;8.916;2024-01-30T13:19:19;11.30;;;4.47;;
6842;SDS011;3460;52.028;8.916;2024-01-30T13:21:46;10.77;;;4.80;;
6842;SDS011;3460;52.028;8.916;2024-01-30T13:24:13;9.33;;;5.17;;
6842;SDS011;3460;52.028;8.916;2024-01-30T13:26:40;9.40;;;5.20;;
6842;SDS011;3460;52.028;8.916;2024-01-30T13:29:10;9.67;;;5.60;;
6842;SDS011;3460;52.028;8.916;2024-01-30T13:31:36;9.53;;;5.57;;
6842;SDS011;3460;52.028;8.916;2024-01-30T13:34:04;7.43;;;5.30;;
6842;SDS011;3460;52.028;8.916;2024-01-30T13:36:31;9.90;;;6.23;;
6842;SDS011;3460;52.028;8.916;2024-01-30T13:38:59;9.47;;;4.77;;
6842;SDS011;3460;52.028;8.916;2024-01-30T13:41:25;7.70;;;4.97;;
6842;SDS011;3460;52.028;8.916;2024-01-30T13:43:52;8.90;;;4.77;;
6842;SDS011;3460;52.028;8.916;2024-01-30T13:46:20;10.87;;;5.13;;
6842;SDS011;3460;52.028;8.916;2024-01-30T13:48:47;7.73;;;5.30;;
6842;SDS011;3460;52.028;8.916;2024-01-30T13:51:14;7.53;;;4.77;;
6842;SDS011;3460;52.028;8.916;2024-01-30T13:53:42;9.37;;;5.00;;
6842;SDS011;3460;52.028;8.916;2024-01-30T13:56:09;10.33;;;4.73;;
6842;SDS011;3460;52.028;8.916;2024-01-30T13:58:36;7.20;;;4.80;;
6842;SDS011;3460;52.028;8.916;2024-01-30T14:01:03;9.53;;;5.27;;
6842;SDS011;3460;52.028;8.916;2024-01-30T14:03:31;7.40;;;4.77;;
6842;SDS011;3460;52.028;8.916;2024-01-30T14:05:58;7.50;;;4.53;;
6842;SDS011;3460;52.028;8.916;2024-01-30T14:08:25;13.10;;;4.87;;
6842;SDS011;3460;52.028;8.916;2024-01-30T14:10:53;9.93;;;5.20;;
6842;SDS011;3460;52.028;8.916;2024-01-30T14:13:20;8.77;;;4.87;;
6842;SDS011;3460;52.028;8.916;2024-01-30T14:15:47;8.87;;;5.00;;
6842;SDS011;3460;52.028;8.916;2024-01-30T14:18:14;7.70;;;4.80;;
6842;SDS011;3460;52.028;8.916;2024-01-30T14:20:42;11.57;;;4.53;;
6842;SDS011;3460;52.028;8.916;2024-01-30T14:23:09;12.37;;;5.40;;
6842;SDS011;3460;52.028;8.916;2024-01-30T14:25:36;10.10;;;4.97;;
6842;SDS011;3460;52.028;8.916;2024-01-30T14:28:03;7.20;;;4.67;;
6842;SDS011;3460;52.028;8.916;2024-01-30T14:30:30;9.47;;;5.17;;
6842;SDS011;3460;52.028;8.916;2024-01-30T14:32:57;9.00;;;4.73;;
6842;SDS011;3460;52.028;8.916;2024-01-30T14:35:24;7.47;;;4.70;;
6842;SDS011;3460;52.028;8.916;2024-01-30T14:37:52;8.30;;;4.97;;
6842;SDS011;3460;52.028;8.916;2024-01-30T14:40:19;10.33;;;5.07;;
6842;SDS011;3460;52.028;8.916;2024-01-30T14:42:46;5.77;;;4.40;;
6842;SDS011;3460;52.028;8.916;2024-01-30T14:45:13;7.80;;;5.10;;
6842;SDS011;3460;52.028;8.916;2024-01-30T14:47:41;7.57;;;4.40;;
6842;SDS011;3460;52.028;8.916;2024-01-30T14:50:16;9.73;;;4.87;;
6842;SDS011;3460;52.028;8.916;2024-01-30T14:52:44;8.00;;;5.30;;
6842;SDS011;3460;52.028;8.916;2024-01-30T14:55:12;9.70;;;4.93;;
6842;SDS011;3460;52.028;8.916;2024-01-30T14:57:39;8.47;;;5.50;;
6842;SDS011;3460;52.028;8.916;2024-01-30T15:00:07;8.97;;;5.20;;